createdAt,value
2023-03-21T00:01:53.239Z,22.80
2023-03-21T00:04:24.703Z,24.10
2023-03-21T00:06:51.747Z,27.38
2023-03-21T00:09:19.271Z,23.77
2023-03-21T00:11:46.481Z,27.85
2023-03-21T00:14:14.559Z,25.70
2023-03-21T00:16:41.937Z,25.90
2023-03-21T00:19:10.401Z,27.95
2023-03-21T00:21:49.022Z,24.52
2023-03-21T00:24:19.114Z,26.48
2023-03-21T00:26:46.251Z,23.95
2023-03-21T00:29:13.067Z,26.75
2023-03-21T00:31:39.854Z,24.55
2023-03-21T00:34:06.629Z,24.85
2023-03-21T00:36:33.494Z,30.50
2023-03-21T00:39:00.918Z,26.58
2023-03-21T00:41:41.375Z,27.40
2023-03-21T00:44:09.346Z,25.25
2023-03-21T00:46:47.024Z,27.75
2023-03-21T00:49:20.712Z,26.50
2023-03-21T00:51:51.277Z,26.60
2023-03-21T00:54:18.245Z,28.27
2023-03-21T00:56:45.105Z,25.55
2023-03-21T00:59:11.886Z,27.55
2023-03-21T01:01:38.739Z,25.05
2023-03-21T01:04:10.878Z,25.80
2023-03-21T01:06:39.557Z,26.33
2023-03-21T01:09:11.866Z,25.42
2023-03-21T01:11:38.654Z,27.85
2023-03-21T01:14:20.776Z,28.08
2023-03-21T01:16:50.272Z,25.65
2023-03-21T01:19:50.250Z,25.00
2023-03-21T01:22:06.458Z,24.25
2023-03-21T01:24:35.609Z,26.70
2023-03-21T01:27:04.535Z,27.67
2023-03-21T01:29:31.532Z,24.80
2023-03-21T01:31:58.389Z,26.98
2023-03-21T01:34:26.240Z,25.77
2023-03-21T01:36:53.224Z,30.45
2023-03-21T01:39:21.593Z,27.35
2023-03-21T01:41:49.655Z,27.83
2023-03-21T01:44:20.189Z,26.80
2023-03-21T01:47:07.649Z,26.42
2023-03-21T01:49:49.652Z,28.25
2023-03-21T01:52:36.565Z,27.13
2023-03-21T01:55:13.293Z,26.98
2023-03-21T01:58:05.238Z,28.88
2023-03-21T02:00:50.203Z,25.80
2023-03-21T02:03:35.750Z,27.15
2023-03-21T02:06:49.075Z,25.13
2023-03-21T02:09:51.601Z,26.73
2023-03-21T02:12:21.489Z,24.70
2023-03-21T02:14:50.120Z,27.27
2023-03-21T02:18:02.958Z,28.70
2023-03-21T02:21:12.162Z,26.02
2023-03-21T02:24:37.827Z,27.33
2023-03-21T02:27:19.228Z,26.08
2023-03-21T02:30:56.108Z,26.10
2023-03-21T02:34:21.051Z,25.90
2023-03-21T02:37:03.180Z,25.67
2023-03-21T02:39:35.227Z,28.13
2023-03-21T02:42:13.414Z,27.73
2023-03-21T02:44:57.061Z,26.60
2023-03-21T02:47:29.848Z,26.17
2023-03-21T02:50:13.023Z,27.60
2023-03-21T02:52:42.966Z,28.10
2023-03-21T02:55:26.519Z,26.92
2023-03-21T02:58:11.713Z,27.25
2023-03-21T03:00:42.861Z,25.33
2023-03-21T03:03:18.126Z,26.98
2023-03-21T03:05:57.821Z,27.95
2023-03-21T03:08:56.079Z,24.90
2023-03-21T03:11:39.879Z,28.17
2023-03-21T03:15:26.575Z,26.30
2023-03-21T03:18:21.159Z,28.17
2023-03-21T03:21:11.679Z,26.50
2023-03-21T03:23:52.709Z,24.60
2023-03-21T03:26:33.958Z,26.73
2023-03-21T03:29:06.769Z,25.70
2023-03-21T03:31:40.764Z,25.77
2023-03-21T03:34:13.628Z,26.98
2023-03-21T03:36:51.589Z,26.05
2023-03-21T03:39:19.178Z,27.48
2023-03-21T03:42:29.184Z,27.77
2023-03-21T03:44:59.085Z,30.73
2023-03-21T03:47:56.028Z,27.48
2023-03-21T03:50:47.970Z,23.10
2023-03-21T03:53:38.623Z,24.02
2023-03-21T03:56:08.228Z,24.85
2023-03-21T03:58:45.202Z,24.80
2023-03-21T04:01:15.418Z,28.13
2023-03-21T04:03:50.995Z,24.58
2023-03-21T04:06:22.181Z,23.98
2023-03-21T04:08:51.032Z,23.60
2023-03-21T04:11:19.974Z,28.05
2023-03-21T04:13:52.018Z,29.15
2023-03-21T04:16:24.684Z,29.23
2023-03-21T04:18:52.484Z,29.67
2023-03-21T04:21:19.927Z,29.10
2023-03-21T04:23:46.900Z,27.50
2023-03-21T04:26:13.865Z,26.77
2023-03-21T04:28:51.068Z,28.25
2023-03-21T04:31:41.619Z,25.15
2023-03-21T04:34:12.314Z,26.95
2023-03-21T04:36:46.587Z,26.30
2023-03-21T04:39:14.658Z,26.02
2023-03-21T04:41:46.266Z,23.85
2023-03-21T04:44:15.753Z,24.65
2023-03-21T04:46:43.483Z,26.10
2023-03-21T04:49:11.774Z,27.25
2023-03-21T04:51:39.370Z,25.02
2023-03-21T04:56:36.836Z,27.75
2023-03-21T04:59:12.524Z,28.05
2023-03-21T05:01:41.146Z,28.25
2023-03-21T05:04:08.916Z,28.35
2023-03-21T05:06:36.601Z,25.65
2023-03-21T05:09:08.253Z,28.88
2023-03-21T05:11:38.704Z,28.30
2023-03-21T05:14:11.667Z,24.85
2023-03-21T05:16:57.773Z,25.40
2023-03-21T05:19:40.598Z,26.75
2023-03-21T05:22:10.653Z,28.35
2023-03-21T05:24:42.472Z,24.60
2023-03-21T05:27:34.160Z,26.05
2023-03-21T05:30:12.139Z,27.45
2023-03-21T05:32:39.052Z,27.00
2023-03-21T05:35:09.770Z,25.00
2023-03-21T05:37:38.475Z,25.45
2023-03-21T05:40:07.832Z,25.45
2023-03-21T05:42:36.880Z,25.23
2023-03-21T05:45:12.468Z,28.60
2023-03-21T05:47:39.848Z,28.10
2023-03-21T05:50:07.477Z,29.02
2023-03-21T05:52:35.519Z,28.95
2023-03-21T05:55:09.856Z,30.25
2023-03-21T05:57:39.310Z,29.77
2023-03-21T06:00:09.633Z,30.38
2023-03-21T06:02:42.246Z,30.13
2023-03-21T06:05:24.221Z,28.35
2023-03-21T06:07:51.082Z,31.63
2023-03-21T06:10:18.223Z,25.40
2023-03-21T06:12:53.650Z,25.58
2023-03-21T06:15:28.532Z,33.22
2023-03-21T06:18:10.661Z,29.05
2023-03-21T06:20:39.865Z,30.42
2023-03-21T06:23:10.850Z,30.23
2023-03-21T06:25:37.875Z,27.98
2023-03-21T06:28:05.216Z,30.80
2023-03-21T06:30:34.304Z,29.40
2023-03-21T06:33:11.982Z,32.13
2023-03-21T06:35:39.070Z,29.40
2023-03-21T06:38:07.108Z,32.40
2023-03-21T06:40:34.035Z,29.92
2023-03-21T06:43:01.597Z,31.08
2023-03-21T06:45:28.475Z,30.13
2023-03-21T06:47:55.402Z,33.75
2023-03-21T06:50:42.228Z,31.83
2023-03-21T06:53:09.113Z,32.20
2023-03-21T06:55:56.242Z,31.23
2023-03-21T06:58:23.909Z,29.95
2023-03-21T07:00:50.782Z,32.83
2023-03-21T07:03:19.240Z,29.83
2023-03-21T07:05:46.782Z,30.67
2023-03-21T07:08:15.813Z,28.85
2023-03-21T07:10:45.524Z,27.90
2023-03-21T07:13:13.102Z,30.25
2023-03-21T07:15:54.917Z,31.13
2023-03-21T07:18:22.198Z,30.17
2023-03-21T07:20:51.271Z,26.83
2023-03-21T07:23:20.397Z,28.95
2023-03-21T07:25:51.495Z,31.08
2023-03-21T07:28:19.381Z,28.60
2023-03-21T07:30:52.993Z,28.55
2023-03-21T07:33:19.884Z,28.88
2023-03-21T07:35:46.841Z,31.35
2023-03-21T07:38:16.817Z,29.00
2023-03-21T07:40:45.178Z,28.67
2023-03-21T07:43:12.282Z,28.15
2023-03-21T07:45:44.078Z,29.88
2023-03-21T07:48:17.503Z,30.42
2023-03-21T07:50:44.401Z,31.80
2023-03-21T07:53:11.234Z,27.90
2023-03-21T07:55:38.233Z,30.65
2023-03-21T07:58:05.759Z,30.30
2023-03-21T08:00:33.188Z,30.75
2023-03-21T08:03:01.096Z,32.25
2023-03-21T08:05:33.759Z,31.17
2023-03-21T08:08:01.007Z,29.00
2023-03-21T08:10:28.096Z,28.15
2023-03-21T08:12:54.981Z,29.00
2023-03-21T08:15:22.327Z,33.45
2023-03-21T08:17:49.042Z,30.00
2023-03-21T08:20:21.180Z,32.75
2023-03-21T08:22:49.438Z,33.03
2023-03-21T08:25:17.994Z,29.90
2023-03-21T08:27:46.683Z,27.65
2023-03-21T08:30:17.623Z,30.52
2023-03-21T08:32:44.671Z,29.27
2023-03-21T08:35:15.863Z,30.77
2023-03-21T08:37:43.617Z,28.55
2023-03-21T08:40:15.684Z,27.30
2023-03-21T08:42:43.302Z,30.20
2023-03-21T08:45:11.796Z,31.80
2023-03-21T08:47:38.715Z,26.90
2023-03-21T08:50:09.555Z,26.58
2023-03-21T08:52:37.237Z,24.55
2023-03-21T08:55:05.175Z,26.23
2023-03-21T08:57:32.236Z,23.88
2023-03-21T08:59:59.042Z,26.00
2023-03-21T09:02:26.058Z,27.55
2023-03-21T09:04:59.081Z,27.15
2023-03-21T09:07:26.377Z,27.90
2023-03-21T09:10:03.014Z,26.83
2023-03-21T09:12:41.238Z,25.27
2023-03-21T09:15:12.082Z,26.27
2023-03-21T09:17:43.833Z,27.63
2023-03-21T09:20:18.661Z,27.17
2023-03-21T09:25:17.523Z,27.75
2023-03-21T09:27:45.886Z,26.15
2023-03-21T09:30:18.569Z,28.00
2023-03-21T09:32:48.491Z,25.77
2023-03-21T09:35:25.116Z,27.60
2023-03-21T09:37:51.886Z,23.83
2023-03-21T09:40:29.991Z,25.95
2023-03-21T09:43:27.057Z,27.92
2023-03-21T09:46:06.795Z,26.88
2023-03-21T09:49:10.705Z,26.77
2023-03-21T09:51:42.948Z,28.23
2023-03-21T09:54:40.602Z,26.13
2023-03-21T09:57:35.479Z,27.00
2023-03-21T10:00:16.456Z,28.55
2023-03-21T10:02:48.058Z,26.42
2023-03-21T10:05:32.047Z,27.85
2023-03-21T10:08:24.681Z,27.83
2023-03-21T10:10:55.837Z,26.95
2023-03-21T10:13:27.038Z,24.75
2023-03-21T10:16:16.056Z,27.48
2023-03-21T10:18:44.449Z,25.98
2023-03-21T10:24:21.851Z,26.67
2023-03-21T10:26:50.527Z,26.17
2023-03-21T10:29:18.562Z,24.63
2023-03-21T10:31:47.018Z,28.15
2023-03-21T10:34:38.253Z,25.67
2023-03-21T10:37:05.834Z,27.60
2023-03-21T10:39:44.883Z,25.30
2023-03-21T10:42:33.834Z,28.88
2023-03-21T10:45:00.861Z,27.65
2023-03-21T10:47:33.814Z,27.73
2023-03-21T10:50:13.537Z,27.02
2023-03-21T10:53:00.721Z,25.02
2023-03-21T10:55:34.796Z,27.13
2023-03-21T10:58:10.841Z,26.73
2023-03-21T11:00:41.429Z,27.73
2023-03-21T11:03:38.931Z,26.65
2023-03-21T11:06:21.911Z,25.40
2023-03-21T11:08:57.700Z,27.52
2023-03-21T11:11:28.852Z,24.35
2023-03-21T11:14:06.919Z,26.00
2023-03-21T11:16:41.500Z,24.13
2023-03-21T11:19:21.360Z,26.67
2023-03-21T11:21:48.373Z,26.45
2023-03-21T11:24:18.050Z,27.35
2023-03-21T11:26:48.104Z,26.52
2023-03-21T11:29:29.277Z,28.58
2023-03-21T11:32:30.945Z,26.17
2023-03-21T11:35:07.274Z,25.40
2023-03-21T11:37:39.899Z,26.55
2023-03-21T11:40:23.134Z,26.20
2023-03-21T11:43:02.317Z,27.23
2023-03-21T11:45:35.870Z,26.73
2023-03-21T11:48:11.732Z,26.42
2023-03-21T11:50:45.519Z,26.33
2023-03-21T11:53:50.471Z,26.13
2023-03-21T11:56:34.803Z,27.45
2023-03-21T11:59:46.293Z,26.33
2023-03-21T12:02:41.543Z,26.23
2023-03-21T12:05:23.098Z,26.27
2023-03-21T12:08:13.148Z,27.77
2023-03-21T12:11:32.558Z,24.73
2023-03-21T12:14:16.511Z,27.60
2023-03-21T12:16:53.343Z,24.13
2023-03-21T12:19:41.291Z,24.52
2023-03-21T12:22:37.212Z,24.63
2023-03-21T12:25:15.744Z,27.80
2023-03-21T12:28:30.109Z,25.15
2023-03-21T12:31:37.316Z,25.65
2023-03-21T12:34:26.865Z,26.80
2023-03-21T12:37:34.752Z,25.77
2023-03-21T12:40:22.773Z,25.10
2023-03-21T12:43:37.112Z,28.92
2023-03-21T12:46:11.689Z,24.52
2023-03-21T12:49:00.549Z,27.70
2023-03-21T12:51:34.960Z,27.02
2023-03-21T12:54:04.791Z,26.70
2023-03-21T12:56:40.526Z,26.88
2023-03-21T12:59:29.813Z,24.08
2023-03-21T13:02:04.061Z,25.27
2023-03-21T13:04:47.741Z,26.92
2023-03-21T13:07:20.040Z,28.63
2023-03-21T13:09:47.080Z,29.15
2023-03-21T13:12:33.605Z,28.70
2023-03-21T13:15:32.181Z,28.98
2023-03-21T13:18:37.497Z,26.58
2023-03-21T13:21:25.740Z,28.10
2023-03-21T13:24:02.164Z,27.73
2023-03-21T13:27:09.118Z,24.25
2023-03-21T13:29:46.149Z,28.45
2023-03-21T13:32:40.869Z,25.88
2023-03-21T13:35:44.644Z,26.63
2023-03-21T13:38:21.957Z,25.02
2023-03-21T13:41:01.000Z,23.60
2023-03-21T13:43:55.112Z,26.98
2023-03-21T13:46:35.868Z,27.05
2023-03-21T13:49:10.620Z,25.80
2023-03-21T13:51:37.286Z,26.33
2023-03-21T13:54:14.105Z,25.48
2023-03-21T13:56:46.896Z,26.02
2023-03-21T13:59:38.892Z,27.58
2023-03-21T14:02:34.167Z,24.95
2023-03-21T14:05:18.397Z,22.45
2023-03-21T14:07:50.096Z,24.58
2023-03-21T14:10:28.668Z,24.55
2023-03-21T14:12:55.536Z,24.92
2023-03-21T14:15:35.392Z,24.95
2023-03-21T14:18:15.855Z,24.55
2023-03-21T14:20:56.921Z,25.27
2023-03-21T14:23:24.466Z,23.42
2023-03-21T14:25:51.909Z,23.77
2023-03-21T14:28:28.110Z,25.40
2023-03-21T14:31:00.172Z,27.83
2023-03-21T14:33:39.479Z,26.38
2023-03-21T14:36:12.657Z,28.52
2023-03-21T14:38:40.740Z,28.10
2023-03-21T14:41:23.738Z,27.70
2023-03-21T14:44:19.101Z,26.83
2023-03-21T14:46:46.018Z,27.05
2023-03-21T14:49:19.981Z,26.25
2023-03-21T14:51:48.244Z,24.63
2023-03-21T14:54:19.675Z,25.60
2023-03-21T14:56:52.185Z,26.65
2023-03-21T14:59:23.685Z,22.70
2023-03-21T15:01:52.691Z,23.42
2023-03-21T15:04:21.469Z,23.38
2023-03-21T15:06:56.676Z,24.73
2023-03-21T15:09:27.377Z,23.25
2023-03-21T15:11:56.368Z,24.35
2023-03-21T15:14:34.685Z,23.80
2023-03-21T15:17:04.500Z,24.50
2023-03-21T15:19:38.067Z,25.70
2023-03-21T15:22:13.577Z,23.40
2023-03-21T15:24:44.921Z,26.85
2023-03-21T15:27:17.600Z,26.45
2023-03-21T15:29:45.831Z,25.65
2023-03-21T15:32:22.817Z,24.52
2023-03-21T15:34:50.368Z,23.20
2023-03-21T15:37:24.125Z,24.50
2023-03-21T15:39:52.446Z,23.95
2023-03-21T15:42:48.789Z,22.83
2023-03-21T15:45:27.950Z,24.65
2023-03-21T15:48:07.893Z,23.67
2023-03-21T15:50:40.540Z,22.98
2023-03-21T15:53:18.877Z,23.52
2023-03-21T15:55:52.571Z,26.70
2023-03-21T15:58:27.893Z,24.30
2023-03-21T16:00:57.173Z,23.70
2023-03-21T16:04:07.342Z,24.20
2023-03-21T16:06:38.115Z,22.45
2023-03-21T16:09:23.371Z,22.90
2023-03-21T16:11:53.257Z,22.35
2023-03-21T16:14:21.834Z,24.23
2023-03-21T16:16:48.980Z,23.75
2023-03-21T16:19:16.376Z,21.35
2023-03-21T16:21:44.457Z,24.13
2023-03-21T16:24:13.383Z,23.23
2023-03-21T16:26:47.830Z,22.98
2023-03-21T16:29:15.893Z,22.38
2023-03-21T16:31:43.777Z,26.67
2023-03-21T16:34:10.882Z,21.90
2023-03-21T16:36:40.556Z,21.55
2023-03-21T16:39:19.210Z,22.35
2023-03-21T16:41:47.156Z,23.10
2023-03-21T16:44:14.085Z,22.08
2023-03-21T16:46:41.010Z,24.30
2023-03-21T16:49:26.750Z,24.63
2023-03-21T16:51:55.990Z,26.45
2023-03-21T16:54:23.363Z,24.40
2023-03-21T16:56:52.876Z,25.70
2023-03-21T16:59:19.920Z,23.95
2023-03-21T17:01:48.181Z,29.42
2023-03-21T17:04:17.337Z,25.75
2023-03-21T17:06:47.959Z,24.85
2023-03-21T17:09:16.359Z,26.23
2023-03-21T17:11:43.454Z,23.98
2023-03-21T17:14:12.408Z,23.55
2023-03-21T17:16:43.289Z,26.65
2023-03-21T17:19:28.425Z,26.77
2023-03-21T17:21:55.372Z,26.75
2023-03-21T17:24:23.644Z,24.00
2023-03-21T17:26:50.804Z,25.23
2023-03-21T17:29:17.826Z,24.38
2023-03-21T17:31:47.471Z,25.38
2023-03-21T17:34:15.595Z,19.33
2023-03-21T17:36:44.044Z,24.92
2023-03-21T17:39:19.147Z,25.27
2023-03-21T17:41:46.012Z,24.60
2023-03-21T17:44:12.898Z,23.33
2023-03-21T17:46:39.790Z,21.05
2023-03-21T17:49:06.991Z,22.35
2023-03-21T17:51:34.033Z,25.48
2023-03-21T17:54:01.451Z,22.77
2023-03-21T17:56:31.324Z,24.20
2023-03-21T17:59:05.364Z,25.42
2023-03-21T18:01:32.337Z,26.23
2023-03-21T18:04:02.922Z,27.58
2023-03-21T18:06:29.727Z,27.60
2023-03-21T18:08:59.707Z,27.27
2023-03-21T18:11:27.825Z,23.70
2023-03-21T18:14:09.907Z,24.13
2023-03-21T18:16:43.366Z,24.45
2023-03-21T18:19:13.881Z,23.80
2023-03-21T18:21:41.172Z,22.33
2023-03-21T18:24:08.150Z,23.90
2023-03-21T18:26:35.330Z,25.45
2023-03-21T18:32:04.864Z,23.42
2023-03-21T18:34:39.030Z,24.50
2023-03-21T18:37:08.411Z,25.00
2023-03-21T18:39:37.224Z,22.42
2023-03-21T18:42:04.630Z,23.40
2023-03-21T18:44:37.840Z,22.80
2023-03-21T18:47:06.575Z,22.65
2023-03-21T18:52:20.896Z,23.05
2023-03-21T18:54:47.742Z,22.08
2023-03-21T19:00:09.313Z,23.75
2023-03-21T19:02:41.910Z,23.27
2023-03-21T19:05:12.873Z,23.35
2023-03-21T19:07:39.683Z,24.33
2023-03-21T19:10:17.550Z,25.30
2023-03-21T19:12:46.020Z,24.95
2023-03-21T19:15:13.298Z,24.50
2023-03-21T19:20:27.880Z,24.30
2023-03-21T19:22:54.837Z,24.70
2023-03-21T19:25:21.916Z,24.27
2023-03-21T19:27:49.688Z,25.58
2023-03-21T19:30:17.624Z,23.80
2023-03-21T19:32:44.863Z,25.17
2023-03-21T19:35:12.519Z,22.58
2023-03-21T19:37:39.455Z,24.80
2023-03-21T19:40:07.740Z,23.58
2023-03-21T19:42:36.408Z,23.83
2023-03-21T19:45:05.400Z,24.13
2023-03-21T19:47:32.810Z,24.80
2023-03-21T19:50:45.559Z,26.30
2023-03-21T19:52:46.523Z,27.13
2023-03-21T19:55:14.888Z,26.90
2023-03-21T19:57:41.867Z,26.02
2023-03-21T20:00:11.537Z,25.75
2023-03-21T20:02:38.914Z,24.23
2023-03-21T20:05:07.015Z,23.70
2023-03-21T20:07:34.164Z,23.80
2023-03-21T20:10:01.196Z,26.58
2023-03-21T20:12:28.631Z,22.67
2023-03-21T20:15:10.382Z,25.95
2023-03-21T20:17:43.059Z,22.42
2023-03-21T20:20:15.121Z,22.48
2023-03-21T20:23:05.614Z,22.65
2023-03-21T20:25:30.012Z,24.52
2023-03-21T20:28:14.752Z,24.88
2023-03-21T20:30:53.209Z,24.65
2023-03-21T20:33:20.577Z,23.35
2023-03-21T20:38:38.046Z,24.48
2023-03-21T20:41:06.626Z,24.90
2023-03-21T20:46:20.775Z,22.40
2023-03-21T20:48:49.766Z,21.95
2023-03-21T20:52:15.186Z,20.35
2023-03-21T20:54:04.713Z,23.08
2023-03-21T20:56:31.948Z,23.75
2023-03-21T20:59:12.151Z,23.42
2023-03-21T21:01:43.180Z,20.83
2023-03-21T21:04:10.348Z,22.85
2023-03-21T21:06:37.323Z,20.35
2023-03-21T21:09:04.452Z,24.75
2023-03-21T21:14:18.177Z,24.00
2023-03-21T21:16:45.136Z,23.80
2023-03-21T21:19:11.888Z,23.88
2023-03-21T21:21:38.789Z,23.80
2023-03-21T21:24:07.570Z,27.48
2023-03-21T21:26:35.475Z,22.58
2023-03-21T21:29:02.613Z,25.35
2023-03-21T21:31:29.633Z,23.88
2023-03-21T21:33:56.395Z,26.55
2023-03-21T21:36:23.401Z,23.40
2023-03-21T21:38:50.220Z,25.15
2023-03-21T21:41:21.975Z,24.85
2023-03-21T21:43:48.947Z,23.73
2023-03-21T21:46:16.204Z,21.42
2023-03-21T21:48:44.018Z,23.17
2023-03-21T21:51:10.766Z,23.17
2023-03-21T21:53:38.871Z,22.15
2023-03-21T21:56:06.405Z,22.42
2023-03-21T21:58:48.726Z,23.58
2023-03-21T22:01:16.095Z,24.08
2023-03-21T22:03:46.052Z,24.70
2023-03-21T22:06:13.391Z,22.95
2023-03-21T22:08:46.879Z,21.60
2023-03-21T22:11:14.931Z,25.98
2023-03-21T22:13:43.599Z,27.73
2023-03-21T22:16:11.230Z,24.67
2023-03-21T22:18:38.644Z,26.00
2023-03-21T22:21:06.707Z,22.80
2023-03-21T22:23:33.573Z,24.92
2023-03-21T22:26:01.034Z,28.25
2023-03-21T22:28:28.338Z,25.55
2023-03-21T22:30:55.786Z,26.38
2023-03-21T22:33:23.240Z,27.15
2023-03-21T22:35:51.712Z,24.38
2023-03-21T22:38:28.313Z,26.27
2023-03-21T22:41:00.230Z,25.13
2023-03-21T22:43:28.561Z,25.77
2023-03-21T22:45:55.957Z,27.55
2023-03-21T22:48:23.464Z,25.92
2023-03-21T22:50:50.613Z,26.80
2023-03-21T22:53:17.973Z,23.52
2023-03-21T22:55:45.537Z,23.30
2023-03-21T22:58:12.455Z,23.77
2023-03-21T23:00:39.582Z,26.13
2023-03-21T23:03:07.077Z,23.33
2023-03-21T23:05:40.528Z,24.73
2023-03-21T23:08:08.013Z,25.00
2023-03-21T23:10:38.370Z,25.80
2023-03-21T23:13:05.503Z,23.40
2023-03-21T23:15:32.334Z,23.58
2023-03-21T23:17:59.810Z,23.73
2023-03-21T23:20:26.631Z,24.70
2023-03-21T23:22:53.824Z,25.20
2023-03-21T23:25:20.989Z,28.70
2023-03-21T23:27:47.946Z,25.40
2023-03-21T23:30:15.243Z,25.67
2023-03-21T23:32:43.391Z,24.83
2023-03-21T23:35:10.740Z,25.70
2023-03-21T23:37:37.556Z,22.42
2023-03-21T23:40:08.948Z,23.70
2023-03-21T23:42:36.273Z,23.10
2023-03-21T23:45:03.422Z,22.65
2023-03-21T23:47:31.115Z,27.13
2023-03-21T23:49:57.949Z,22.60
2023-03-21T23:52:24.788Z,26.20
2023-03-21T23:54:51.900Z,24.85
2023-03-21T23:57:18.768Z,25.20
2023-03-21T23:59:46.990Z,24.25
